createdAt,value
2022-11-12T00:00:23.053Z,97757.88
2022-11-12T00:03:08.942Z,97754.34
2022-11-12T00:05:54.762Z,97747.06
2022-11-12T00:08:40.457Z,97756.66
2022-11-12T00:11:25.884Z,97754.72
2022-11-12T00:14:11.463Z,97738.19
2022-11-12T00:16:56.783Z,97742.94
2022-11-12T00:19:42.225Z,97744.38
2022-11-12T00:22:27.803Z,97740.50
2022-11-12T00:25:13.431Z,97743.44
2022-11-12T00:28:04.627Z,97742.97
2022-11-12T00:30:50.433Z,97743.78
2022-11-12T00:33:40.282Z,97750.28
2022-11-12T00:36:25.993Z,97744.16
2022-11-12T00:39:11.554Z,97733.47
2022-11-12T00:41:57.256Z,97726.31
2022-11-12T00:44:42.697Z,97735.38
2022-11-12T00:47:28.377Z,97728.22
2022-11-12T00:50:16.191Z,97729.31
2022-11-12T00:53:01.940Z,97730.09
2022-11-12T00:55:47.574Z,97726.34
2022-11-12T00:58:35.313Z,97717.75
2022-11-12T01:01:22.071Z,97719.38
2022-11-12T01:04:08.215Z,97714.81
2022-11-12T01:06:53.784Z,97712.59
2022-11-12T01:09:40.222Z,97713.91
2022-11-12T01:12:26.013Z,97708.88
2022-11-12T01:15:11.574Z,97715.06
2022-11-12T01:17:57.193Z,97712.78
2022-11-12T01:20:42.856Z,97718.47
2022-11-12T01:23:29.055Z,97715.56
2022-11-12T01:26:16.858Z,97721.28
2022-11-12T01:29:02.835Z,97715.63
2022-11-12T01:31:48.553Z,97719.19
2022-11-12T01:34:34.254Z,97709.28
2022-11-12T01:37:20.015Z,97715.16
2022-11-12T01:40:06.450Z,97710.44
2022-11-12T01:42:53.835Z,97712.53
2022-11-12T01:45:45.593Z,97705.28
2022-11-12T01:48:31.093Z,97709.00
2022-11-12T01:51:16.895Z,97703.81
2022-11-12T01:54:07.374Z,97704.13
2022-11-12T01:56:53.353Z,97700.94
2022-11-12T01:59:44.033Z,97693.16
2022-11-12T02:02:29.454Z,97705.19
2022-11-12T02:05:16.782Z,97698.00
2022-11-12T02:08:03.854Z,97701.78
2022-11-12T02:10:50.933Z,97701.28
2022-11-12T02:13:55.015Z,97702.78
2022-11-12T02:16:43.373Z,97700.66
2022-11-12T02:19:29.115Z,97702.09
2022-11-12T02:22:14.533Z,97702.09
2022-11-12T02:24:59.913Z,97689.91
2022-11-12T02:27:46.308Z,97692.06
2022-11-12T02:30:49.199Z,97687.72
2022-11-12T02:33:34.749Z,97685.44
2022-11-12T02:36:20.970Z,97677.63
2022-11-12T02:39:06.830Z,97678.31
2022-11-12T02:41:52.450Z,97677.97
2022-11-12T02:44:37.980Z,97683.16
2022-11-12T02:47:23.898Z,97681.56
2022-11-12T02:50:10.287Z,97688.19
2022-11-12T02:52:55.749Z,97682.03
2022-11-12T02:55:43.228Z,97679.72
2022-11-12T02:58:30.017Z,97691.41
2022-11-12T03:01:15.912Z,97690.28
2022-11-12T03:04:02.028Z,97695.78
2022-11-12T03:06:47.830Z,97692.53
2022-11-12T03:09:34.597Z,97698.56
2022-11-12T03:12:20.149Z,97695.81
2022-11-12T03:15:05.969Z,97695.81
2022-11-12T03:17:51.590Z,97695.38
2022-11-12T03:20:37.248Z,97687.88
2022-11-12T03:23:23.288Z,97688.81
2022-11-12T03:26:08.809Z,97691.53
2022-11-12T03:28:54.659Z,97680.19
2022-11-12T03:31:40.457Z,97689.09
2022-11-12T03:34:26.428Z,97693.66
2022-11-12T03:37:12.068Z,97687.19
2022-11-12T03:39:57.830Z,97686.09
2022-11-12T03:42:48.649Z,97684.63
2022-11-12T03:45:34.157Z,97673.13
2022-11-12T03:48:19.788Z,97686.56
2022-11-12T03:51:05.618Z,97682.03
2022-11-12T03:53:51.150Z,97685.72
2022-11-12T03:56:36.541Z,97688.16
2022-11-12T03:59:22.329Z,97690.59
2022-11-12T04:02:07.809Z,97694.66
2022-11-12T04:05:12.945Z,97694.47
2022-11-12T04:08:18.937Z,97690.06
2022-11-12T04:11:13.430Z,97689.09
2022-11-12T04:14:00.269Z,97685.22
2022-11-12T04:17:04.858Z,97687.59
2022-11-12T04:20:09.110Z,97694.91
2022-11-12T04:22:54.896Z,97690.00
2022-11-12T04:26:00.130Z,97694.34
2022-11-12T04:29:05.649Z,97685.22
2022-11-12T04:31:51.449Z,97678.56
2022-11-12T04:34:37.263Z,97682.09
2022-11-12T04:37:25.209Z,97672.63
2022-11-12T04:40:33.794Z,97673.38
2022-11-12T04:43:38.233Z,97680.75
2022-11-12T04:46:23.790Z,97676.63
2022-11-12T04:49:09.358Z,97673.00
2022-11-12T04:52:07.030Z,97674.56
2022-11-12T04:54:53.808Z,97665.06
2022-11-12T04:57:39.335Z,97646.16
2022-11-12T05:00:25.016Z,97648.19
2022-11-12T05:03:10.629Z,97639.06
2022-11-12T05:06:02.371Z,97642.66
2022-11-12T05:08:48.068Z,97633.22
2022-11-12T05:11:33.349Z,97626.06
2022-11-12T05:14:19.328Z,97624.53
2022-11-12T05:17:05.355Z,97621.38
2022-11-12T05:19:50.729Z,97628.69
2022-11-12T05:22:45.652Z,97643.41
2022-11-12T05:25:36.362Z,97653.81
2022-11-12T05:28:22.047Z,97655.69
2022-11-12T05:31:07.496Z,97655.69
2022-11-12T05:33:53.045Z,97649.69
2022-11-12T05:36:38.860Z,97646.72
2022-11-12T05:39:24.646Z,97651.56
2022-11-12T05:42:13.525Z,97657.06
2022-11-12T05:44:59.668Z,97655.88
2022-11-12T05:47:45.192Z,97642.34
2022-11-12T05:50:39.937Z,97644.56
2022-11-12T05:53:36.484Z,97645.63
2022-11-12T05:56:22.606Z,97650.16
2022-11-12T05:59:10.244Z,97643.41
2022-11-12T06:01:56.114Z,97643.66
2022-11-12T06:04:42.007Z,97646.38
2022-11-12T06:07:27.723Z,97654.66
2022-11-12T06:10:19.112Z,97655.47
2022-11-12T06:13:06.283Z,97660.28
2022-11-12T06:15:53.277Z,97658.31
2022-11-12T06:18:38.718Z,97665.78
2022-11-12T06:21:24.645Z,97664.97
2022-11-12T06:24:10.427Z,97669.97
2022-11-12T06:26:55.743Z,97678.44
2022-11-12T06:29:41.346Z,97667.03
2022-11-12T06:32:27.201Z,97671.88
2022-11-12T06:35:13.118Z,97673.69
2022-11-12T06:37:58.563Z,97673.13
2022-11-12T06:40:44.265Z,97672.56
2022-11-12T06:43:31.949Z,97668.44
2022-11-12T06:46:17.753Z,97676.69
2022-11-12T06:49:04.138Z,97680.19
2022-11-12T06:51:52.643Z,97677.81
2022-11-12T06:54:38.043Z,97686.75
2022-11-12T06:57:23.755Z,97688.88
2022-11-12T07:00:11.975Z,97690.34
2022-11-12T07:02:57.438Z,97673.69
2022-11-12T07:05:43.555Z,97678.81
2022-11-12T07:08:29.614Z,97674.47
2022-11-12T07:11:15.305Z,97668.91
2022-11-12T07:14:00.917Z,97667.81
2022-11-12T07:16:46.454Z,97667.50
2022-11-12T07:19:31.757Z,97667.19
2022-11-12T07:22:17.384Z,97662.41
2022-11-12T07:25:02.868Z,97665.13
2022-11-12T07:27:50.228Z,97663.94
2022-11-12T07:30:35.497Z,97658.81
2022-11-12T07:33:20.986Z,97656.69
2022-11-12T07:36:09.465Z,97648.69
2022-11-12T07:38:54.975Z,97641.69
2022-11-12T07:41:40.756Z,97648.56
2022-11-12T07:44:26.246Z,97647.44
2022-11-12T07:47:12.312Z,97643.88
2022-11-12T07:49:57.924Z,97641.91
2022-11-12T07:52:43.548Z,97639.94
2022-11-12T07:55:28.812Z,97637.56
2022-11-12T07:58:14.414Z,97637.84
2022-11-12T08:01:11.211Z,97644.09
2022-11-12T08:03:57.475Z,97636.69
2022-11-12T08:06:43.233Z,97643.94
2022-11-12T08:09:29.165Z,97652.81
2022-11-12T08:12:14.496Z,97651.44
2022-11-12T08:15:00.305Z,97649.44
2022-11-12T08:17:46.316Z,97655.50
2022-11-12T08:20:31.746Z,97651.06
2022-11-12T08:23:17.115Z,97657.09
2022-11-12T08:26:04.824Z,97657.91
2022-11-12T08:28:50.380Z,97656.31
2022-11-12T08:31:36.516Z,97653.28
2022-11-12T08:34:22.916Z,97660.31
2022-11-12T08:37:08.677Z,97667.75
2022-11-12T08:39:54.395Z,97662.88
2022-11-12T08:42:40.116Z,97657.19
2022-11-12T08:45:26.399Z,97662.38
2022-11-12T08:48:14.615Z,97664.53
2022-11-12T08:51:05.477Z,97659.44
2022-11-12T08:53:51.012Z,97658.75
2022-11-12T08:56:36.894Z,97660.91
2022-11-12T08:59:22.323Z,97654.56
2022-11-12T09:02:13.696Z,97661.28
2022-11-12T09:04:59.178Z,97661.75
2022-11-12T09:07:50.084Z,97658.44
2022-11-12T09:10:37.117Z,97670.66
2022-11-12T09:13:22.679Z,97662.56
2022-11-12T09:16:10.433Z,97660.19
2022-11-12T09:18:56.235Z,97668.38
2022-11-12T09:21:41.546Z,97656.63
2022-11-12T09:24:27.318Z,97670.31
2022-11-12T09:27:12.700Z,97664.75
2022-11-12T09:29:58.178Z,97667.22
2022-11-12T09:32:43.734Z,97664.00
2022-11-12T09:35:29.648Z,97666.44
2022-11-12T09:38:15.675Z,97666.50
2022-11-12T09:41:16.367Z,97664.16
2022-11-12T09:44:10.374Z,97648.56
2022-11-12T09:47:02.195Z,97648.56
2022-11-12T09:49:57.537Z,97638.56
2022-11-12T09:52:47.506Z,97637.13
2022-11-12T09:55:41.256Z,97636.97
2022-11-12T09:58:28.105Z,97633.03
2022-11-12T10:01:24.480Z,97627.13
2022-11-12T10:04:22.156Z,97631.63
2022-11-12T10:07:39.485Z,97645.44
2022-11-12T10:10:37.080Z,97648.19
2022-11-12T10:13:38.777Z,97644.63
2022-11-12T10:16:51.394Z,97656.81
2022-11-12T10:19:39.933Z,97661.28
2022-11-12T10:22:48.955Z,97664.47
2022-11-12T10:25:35.667Z,97658.28
2022-11-12T10:28:38.369Z,97664.88
2022-11-12T10:31:24.936Z,97666.31
2022-11-12T10:34:13.666Z,97665.31
2022-11-12T10:37:08.016Z,97660.03
2022-11-12T10:39:53.820Z,97666.94
2022-11-12T10:43:00.870Z,97657.59
2022-11-12T10:45:48.729Z,97664.84
2022-11-12T10:48:35.217Z,97662.78
2022-11-12T10:51:27.287Z,97660.16
2022-11-12T10:54:27.825Z,97662.44
2022-11-12T10:57:20.812Z,97666.66
2022-11-12T11:00:24.572Z,97660.50
2022-11-12T11:03:22.145Z,97663.06
2022-11-12T11:06:22.906Z,97660.53
2022-11-12T11:09:17.388Z,97664.44
2022-11-12T11:12:03.664Z,97668.28
2022-11-12T11:15:07.672Z,97661.97
2022-11-12T11:17:53.227Z,97660.72
2022-11-12T11:20:51.444Z,97663.09
2022-11-12T11:23:47.490Z,97665.94
2022-11-12T11:26:52.095Z,97662.38
2022-11-12T11:30:02.203Z,97663.16
2022-11-12T11:33:24.125Z,97657.34
2022-11-12T11:36:29.895Z,97651.03
2022-11-12T11:39:39.846Z,97643.09
2022-11-12T11:42:37.447Z,97640.59
2022-11-12T11:45:47.564Z,97645.47
2022-11-12T11:48:39.412Z,97643.34
2022-11-12T11:51:43.243Z,97637.72
2022-11-12T11:54:47.496Z,97625.06
2022-11-12T11:57:55.646Z,97624.59
2022-11-12T12:13:56.055Z,97636.84
2022-11-12T12:16:56.688Z,97629.41
2022-11-12T12:19:49.184Z,97635.78
2022-11-12T12:22:57.735Z,97628.06
2022-11-12T12:25:46.747Z,97628.31
2022-11-12T12:29:07.310Z,97625.69
2022-11-12T12:32:03.169Z,97632.03
2022-11-12T12:34:56.645Z,97625.56
2022-11-12T12:38:14.665Z,97623.44
2022-11-12T12:41:17.145Z,97626.09
2022-11-12T12:44:09.503Z,97621.81
2022-11-12T12:47:01.355Z,97618.59
2022-11-12T12:49:50.098Z,97613.88
2022-11-12T12:53:15.709Z,97609.56
2022-11-12T12:56:26.056Z,97625.56
2022-11-12T12:59:23.364Z,97599.75
2022-11-12T13:02:18.886Z,97605.38
2022-11-12T13:05:04.874Z,97596.59
2022-11-12T13:07:51.963Z,97600.75
2022-11-12T13:10:37.421Z,97594.78
2022-11-12T13:13:32.956Z,97587.56
2022-11-12T13:16:49.765Z,97583.03
2022-11-12T13:19:35.449Z,97580.41
2022-11-12T13:22:20.914Z,97572.91
2022-11-12T13:25:12.577Z,97581.16
2022-11-12T13:28:10.296Z,97583.53
2022-11-12T13:30:57.076Z,97579.41
2022-11-12T13:33:42.836Z,97580.53
2022-11-12T13:36:31.439Z,97577.94
2022-11-12T13:39:20.398Z,97583.16
2022-11-12T13:42:37.237Z,97578.81
2022-11-12T13:45:27.106Z,97590.44
2022-11-12T13:48:18.163Z,97597.78
2022-11-12T13:51:07.806Z,97599.28
2022-11-12T13:53:53.535Z,97605.16
2022-11-12T13:56:39.463Z,97606.09
2022-11-12T13:59:26.556Z,97620.16
2022-11-12T14:02:21.226Z,97621.53
2022-11-12T14:05:19.578Z,97619.09
2022-11-12T14:08:36.783Z,97624.31
2022-11-12T14:11:46.294Z,97618.50
2022-11-12T14:14:52.805Z,97630.78
2022-11-12T14:18:16.786Z,97625.53
2022-11-12T14:21:20.714Z,97625.31
2022-11-12T14:24:10.874Z,97626.03
2022-11-12T14:26:56.345Z,97616.97
2022-11-12T14:29:43.865Z,97619.97
2022-11-12T14:32:35.955Z,97616.84
2022-11-12T14:35:29.424Z,97621.91
2022-11-12T14:38:23.089Z,97616.56
2022-11-12T14:41:11.844Z,97607.53
2022-11-12T14:44:12.657Z,97619.81
2022-11-12T14:46:59.885Z,97617.56
2022-11-12T14:49:49.667Z,97615.41
2022-11-12T14:52:41.266Z,97619.53
2022-11-12T14:55:30.875Z,97610.28
2022-11-12T14:58:19.005Z,97621.84
2022-11-12T15:02:08.499Z,97621.41
2022-11-12T15:04:37.424Z,97624.94
2022-11-12T15:07:28.755Z,97619.63
2022-11-12T15:10:35.251Z,97617.56
2022-11-12T15:13:27.749Z,97619.13
2022-11-12T15:16:23.413Z,97610.41
2022-11-12T15:19:24.582Z,97607.16
2022-11-12T15:22:22.325Z,97608.59
2022-11-12T15:25:30.150Z,97616.28
2022-11-12T15:28:22.804Z,97605.13
2022-11-12T15:31:18.856Z,97606.50
2022-11-12T15:34:27.585Z,97605.47
2022-11-12T15:37:19.381Z,97607.44
2022-11-12T15:40:18.806Z,97605.75
2022-11-12T15:43:11.498Z,97608.31
2022-11-12T15:45:57.304Z,97610.63
2022-11-12T15:48:43.204Z,97619.78
2022-11-12T15:51:28.784Z,97623.94
2022-11-12T15:54:14.232Z,97618.75
2022-11-12T15:57:00.124Z,97620.41
2022-11-12T15:59:48.164Z,97625.34
2022-11-12T16:02:33.735Z,97628.03
2022-11-12T16:05:19.505Z,97623.22
2022-11-12T16:08:05.447Z,97628.28
2022-11-12T16:10:51.117Z,97623.88
2022-11-12T16:13:37.104Z,97620.47
2022-11-12T16:16:22.734Z,97625.75
2022-11-12T16:19:14.606Z,97633.25
2022-11-12T16:22:03.993Z,97628.25
2022-11-12T16:24:49.964Z,97632.13
2022-11-12T16:27:38.283Z,97636.75
2022-11-12T16:30:26.905Z,97647.28
2022-11-12T16:33:13.671Z,97639.44
2022-11-12T16:35:59.441Z,97643.91
2022-11-12T16:38:46.325Z,97642.31
2022-11-12T16:41:32.284Z,97645.97
2022-11-12T16:44:18.023Z,97655.25
2022-11-12T16:47:04.738Z,97648.22
2022-11-12T16:49:50.226Z,97647.22
2022-11-12T16:52:35.685Z,97642.41
2022-11-12T16:55:22.097Z,97650.47
2022-11-12T16:58:07.994Z,97647.06
2022-11-12T17:00:53.730Z,97652.09
2022-11-12T17:03:39.263Z,97655.09
2022-11-12T17:06:36.896Z,97652.06
2022-11-12T17:09:22.184Z,97653.69
2022-11-12T17:12:08.273Z,97653.06
2022-11-12T17:14:54.004Z,97655.09
2022-11-12T17:17:39.705Z,97659.13
2022-11-12T17:20:25.056Z,97656.09
2022-11-12T17:23:10.464Z,97659.72
2022-11-12T17:26:03.203Z,97653.25
2022-11-12T17:28:51.611Z,97659.69
2022-11-12T17:31:41.004Z,97652.81
2022-11-12T17:34:26.444Z,97656.25
2022-11-12T17:37:11.894Z,97668.75
2022-11-12T17:39:57.205Z,97657.84
2022-11-12T17:42:42.873Z,97663.25
2022-11-12T17:45:28.484Z,97656.22
2022-11-12T17:48:13.965Z,97660.44
2022-11-12T17:51:14.762Z,97656.56
2022-11-12T17:54:00.124Z,97658.78
2022-11-12T17:56:45.611Z,97662.59
2022-11-12T17:59:31.166Z,97661.19
2022-11-12T18:02:16.534Z,97653.53
2022-11-12T18:05:01.997Z,97655.16
2022-11-12T18:07:47.465Z,97653.94
2022-11-12T18:10:32.943Z,97649.53
2022-11-12T18:13:18.503Z,97646.91
2022-11-12T18:16:24.165Z,97655.38
2022-11-12T18:19:11.315Z,97652.13
2022-11-12T18:21:57.235Z,97648.91
2022-11-12T18:24:42.893Z,97651.94
2022-11-12T18:27:28.315Z,97650.69
2022-11-12T18:30:18.984Z,97650.69
2022-11-12T18:33:05.116Z,97655.88
2022-11-12T18:36:01.308Z,97659.47
2022-11-12T18:38:50.225Z,97662.69
2022-11-12T18:41:35.638Z,97662.44
2022-11-12T18:44:25.860Z,97659.00
2022-11-12T18:47:11.869Z,97665.41
2022-11-12T18:49:57.475Z,97671.00
2022-11-12T18:52:43.724Z,97662.56
2022-11-12T18:55:29.132Z,97655.72
2022-11-12T18:58:14.504Z,97655.28
2022-11-12T19:01:07.759Z,97656.47
2022-11-12T19:03:55.466Z,97662.69
2022-11-12T19:06:41.627Z,97662.88
2022-11-12T19:09:27.265Z,97650.81
2022-11-12T19:12:12.824Z,97655.22
2022-11-12T19:14:58.126Z,97652.63
2022-11-12T19:17:43.654Z,97657.66
2022-11-12T19:20:30.974Z,97651.69
2022-11-12T19:23:16.919Z,97645.09
2022-11-12T19:26:04.217Z,97654.94
2022-11-12T19:28:50.004Z,97656.16
2022-11-12T19:31:35.713Z,97643.72
2022-11-12T19:34:21.263Z,97650.38
2022-11-12T19:37:27.105Z,97643.34
2022-11-12T19:40:12.446Z,97640.50
2022-11-12T19:42:58.244Z,97645.97
2022-11-12T19:45:43.857Z,97638.94
2022-11-12T19:48:31.283Z,97640.69
2022-11-12T19:51:17.065Z,97644.16
2022-11-12T19:54:04.579Z,97633.50
2022-11-12T19:56:50.662Z,97636.94
2022-11-12T19:59:36.303Z,97633.50
2022-11-12T20:02:22.003Z,97641.31
2022-11-12T20:05:07.953Z,97645.06
2022-11-12T20:07:54.035Z,97637.94
2022-11-12T20:10:39.445Z,97638.34
2022-11-12T20:13:25.135Z,97641.53
2022-11-12T20:16:19.473Z,97638.88
2022-11-12T20:19:09.103Z,97640.44
2022-11-12T20:21:54.704Z,97647.84
2022-11-12T20:24:40.344Z,97641.00
2022-11-12T20:27:26.405Z,97653.69
2022-11-12T20:30:12.403Z,97641.81
2022-11-12T20:32:57.871Z,97650.22
2022-11-12T20:35:43.243Z,97641.41
2022-11-12T20:38:29.218Z,97653.81
2022-11-12T20:41:17.994Z,97654.56
2022-11-12T20:44:03.864Z,97652.09
2022-11-12T20:46:49.650Z,97656.09
2022-11-12T20:49:35.462Z,97656.44
2022-11-12T20:52:20.896Z,97657.81
2022-11-12T20:55:07.044Z,97656.97
2022-11-12T20:57:52.445Z,97665.31
2022-11-12T21:00:39.116Z,97659.47
2022-11-12T21:03:24.564Z,97652.78
2022-11-12T21:06:13.465Z,97657.63
2022-11-12T21:09:00.716Z,97663.28
2022-11-12T21:11:46.184Z,97658.06
2022-11-12T21:14:31.684Z,97651.06
2022-11-12T21:17:17.265Z,97653.09
2022-11-12T21:20:03.363Z,97654.47
2022-11-12T21:22:48.966Z,97646.88
2022-11-12T21:25:41.236Z,97645.16
2022-11-12T21:28:27.152Z,97647.19
2022-11-12T21:31:24.943Z,97642.59
2022-11-12T21:34:10.764Z,97649.06
2022-11-12T21:36:56.503Z,97657.13
2022-11-12T21:39:41.944Z,97659.34
2022-11-12T21:42:28.283Z,97656.94
2022-11-12T21:45:13.993Z,97657.38
2022-11-12T21:47:59.629Z,97659.63
2022-11-12T21:50:45.212Z,97659.97
2022-11-12T21:53:30.914Z,97663.63
2022-11-12T21:56:18.325Z,97664.03
2022-11-12T21:59:04.614Z,97664.03
2022-11-12T22:01:49.957Z,97662.41
2022-11-12T22:04:35.487Z,97667.75
2022-11-12T22:07:20.909Z,97659.56
2022-11-12T22:10:07.086Z,97656.69
2022-11-12T22:13:19.813Z,97654.47
2022-11-12T22:15:58.437Z,97658.44
2022-11-12T22:18:46.855Z,97655.41
2022-11-12T22:21:39.378Z,97646.19
2022-11-12T22:24:25.334Z,97649.84
2022-11-12T22:27:10.646Z,97644.09
2022-11-12T22:29:56.015Z,97645.69
2022-11-12T22:32:41.596Z,97641.53
2022-11-12T22:35:26.902Z,97632.75
2022-11-12T22:38:12.483Z,97638.03
2022-11-12T22:41:03.048Z,97646.34
2022-11-12T22:43:50.745Z,97641.34
2022-11-12T22:46:36.915Z,97640.09
2022-11-12T22:49:22.803Z,97643.66
2022-11-12T22:52:08.285Z,97651.31
2022-11-12T22:54:53.825Z,97657.59
2022-11-12T22:57:39.225Z,97649.13
2022-11-12T23:00:31.237Z,97658.94
2022-11-12T23:03:16.613Z,97648.09
2022-11-12T23:06:04.783Z,97645.66
2022-11-12T23:08:50.787Z,97652.69
2022-11-12T23:11:38.318Z,97641.84
2022-11-12T23:14:24.084Z,97647.69
2022-11-12T23:17:09.841Z,97644.91
2022-11-12T23:19:55.466Z,97644.53
2022-11-12T23:22:41.012Z,97640.72
2022-11-12T23:25:26.417Z,97642.56
2022-11-12T23:28:11.914Z,97642.56
2022-11-12T23:30:57.525Z,97637.16
2022-11-12T23:33:48.213Z,97643.41
2022-11-12T23:36:33.645Z,97632.16
2022-11-12T23:39:19.064Z,97627.75
2022-11-12T23:42:04.695Z,97625.75
2022-11-12T23:44:50.365Z,97626.56
2022-11-12T23:47:35.804Z,97626.94
2022-11-12T23:50:21.373Z,97629.75
2022-11-12T23:53:06.707Z,97624.72
2022-11-12T23:55:52.489Z,97631.38
2022-11-12T23:58:40.424Z,97631.97
